sensor_id;sensor_type;location;lat;lon;timestamp;P1;durP1;ratioP1;P2;durP2;ratioP2
77449;SDS011;66536;53.150;18.172;2023-04-23T00:02:01;27.10;;;12.50;;
77449;SDS011;66536;53.150;18.172;2023-04-23T00:04:28;33.30;;;14.20;;
77449;SDS011;66536;53.150;18.172;2023-04-23T00:07:01;23.40;;;11.00;;
77449;SDS011;66536;53.150;18.172;2023-04-23T00:09:29;28.50;;;13.90;;
77449;SDS011;66536;53.150;18.172;2023-04-23T00:11:58;28.50;;;13.00;;
77449;SDS011;66536;53.150;18.172;2023-04-23T00:14:26;31.40;;;13.80;;
77449;SDS011;66536;53.150;18.172;2023-04-23T00:16:52;28.10;;;12.10;;
77449;SDS011;66536;53.150;18.172;2023-04-23T00:19:20;29.30;;;12.60;;
77449;SDS011;66536;53.150;18.172;2023-04-23T00:21:46;29.00;;;13.20;;
77449;SDS011;66536;53.150;18.172;2023-04-23T00:24:12;28.70;;;13.10;;
77449;SDS011;66536;53.150;18.172;2023-04-23T00:26:39;22.30;;;12.70;;
77449;SDS011;66536;53.150;18.172;2023-04-23T00:29:05;26.90;;;12.80;;
77449;SDS011;66536;53.150;18.172;2023-04-23T00:31:31;23.90;;;11.40;;
77449;SDS011;66536;53.150;18.172;2023-04-23T00:34:00;22.20;;;10.60;;
77449;SDS011;66536;53.150;18.172;2023-04-23T00:36:28;21.10;;;12.10;;
77449;SDS011;66536;53.150;18.172;2023-04-23T00:38:53;20.80;;;11.30;;
77449;SDS011;66536;53.150;18.172;2023-04-23T00:41:19;20.60;;;10.60;;
77449;SDS011;66536;53.150;18.172;2023-04-23T00:43:46;25.70;;;11.10;;
77449;SDS011;66536;53.150;18.172;2023-04-23T00:46:13;23.50;;;11.80;;
77449;SDS011;66536;53.150;18.172;2023-04-23T00:48:41;20.70;;;10.90;;
77449;SDS011;66536;53.150;18.172;2023-04-23T00:51:09;24.40;;;11.70;;
77449;SDS011;66536;53.150;18.172;2023-04-23T00:53:37;28.40;;;12.60;;
77449;SDS011;66536;53.150;18.172;2023-04-23T00:56:07;44.70;;;16.90;;
77449;SDS011;66536;53.150;18.172;2023-04-23T00:58:34;29.60;;;14.00;;
77449;SDS011;66536;53.150;18.172;2023-04-23T01:01:01;26.60;;;12.60;;
77449;SDS011;66536;53.150;18.172;2023-04-23T01:03:29;27.10;;;13.00;;
77449;SDS011;66536;53.150;18.172;2023-04-23T01:05:57;25.00;;;11.80;;
77449;SDS011;66536;53.150;18.172;2023-04-23T01:08:23;30.90;;;13.80;;
77449;SDS011;66536;53.150;18.172;2023-04-23T01:10:51;30.70;;;12.80;;
77449;SDS011;66536;53.150;18.172;2023-04-23T01:13:18;27.80;;;12.50;;
77449;SDS011;66536;53.150;18.172;2023-04-23T01:15:44;33.20;;;14.10;;
77449;SDS011;66536;53.150;18.172;2023-04-23T01:18:10;33.00;;;14.10;;
77449;SDS011;66536;53.150;18.172;2023-04-23T01:20:41;32.10;;;12.10;;
77449;SDS011;66536;53.150;18.172;2023-04-23T01:23:09;34.10;;;12.90;;
77449;SDS011;66536;53.150;18.172;2023-04-23T01:25:36;27.80;;;12.50;;
77449;SDS011;66536;53.150;18.172;2023-04-23T01:28:04;26.30;;;12.10;;
77449;SDS011;66536;53.150;18.172;2023-04-23T01:30:31;30.70;;;13.00;;
77449;SDS011;66536;53.150;18.172;2023-04-23T01:33:00;30.50;;;12.80;;
77449;SDS011;66536;53.150;18.172;2023-04-23T01:35:35;38.70;;;15.10;;
77449;SDS011;66536;53.150;18.172;2023-04-23T01:38:02;42.70;;;15.80;;
77449;SDS011;66536;53.150;18.172;2023-04-23T01:40:30;44.40;;;16.60;;
77449;SDS011;66536;53.150;18.172;2023-04-23T01:43:04;43.90;;;15.50;;
77449;SDS011;66536;53.150;18.172;2023-04-23T01:45:32;34.30;;;13.40;;
77449;SDS011;66536;53.150;18.172;2023-04-23T01:47:59;41.80;;;15.50;;
77449;SDS011;66536;53.150;18.172;2023-04-23T01:50:25;40.40;;;15.40;;
77449;SDS011;66536;53.150;18.172;2023-04-23T01:52:53;49.00;;;16.50;;
77449;SDS011;66536;53.150;18.172;2023-04-23T01:55:19;32.20;;;14.80;;
77449;SDS011;66536;53.150;18.172;2023-04-23T01:57:46;37.80;;;14.60;;
77449;SDS011;66536;53.150;18.172;2023-04-23T02:00:13;119.70;;;40.10;;
77449;SDS011;66536;53.150;18.172;2023-04-23T02:02:42;58.60;;;19.60;;
77449;SDS011;66536;53.150;18.172;2023-04-23T02:05:10;55.70;;;19.50;;
77449;SDS011;66536;53.150;18.172;2023-04-23T02:07:38;50.70;;;17.60;;
77449;SDS011;66536;53.150;18.172;2023-04-23T02:10:04;27.10;;;13.80;;
77449;SDS011;66536;53.150;18.172;2023-04-23T02:12:31;33.60;;;13.40;;
77449;SDS011;66536;53.150;18.172;2023-04-23T02:15:01;26.50;;;12.50;;
77449;SDS011;66536;53.150;18.172;2023-04-23T02:17:28;30.50;;;13.50;;
77449;SDS011;66536;53.150;18.172;2023-04-23T02:20:06;25.80;;;12.50;;
77449;SDS011;66536;53.150;18.172;2023-04-23T02:22:37;21.90;;;11.60;;
77449;SDS011;66536;53.150;18.172;2023-04-23T02:25:04;24.90;;;12.40;;
77449;SDS011;66536;53.150;18.172;2023-04-23T02:27:34;21.50;;;10.70;;
77449;SDS011;66536;53.150;18.172;2023-04-23T02:30:00;27.30;;;12.50;;
77449;SDS011;66536;53.150;18.172;2023-04-23T02:32:28;26.90;;;12.20;;
77449;SDS011;66536;53.150;18.172;2023-04-23T02:34:58;30.60;;;13.20;;
77449;SDS011;66536;53.150;18.172;2023-04-23T02:37:24;25.30;;;11.80;;
77449;SDS011;66536;53.150;18.172;2023-04-23T02:39:52;21.50;;;12.10;;
77449;SDS011;66536;53.150;18.172;2023-04-23T02:42:38;25.60;;;11.30;;
77449;SDS011;66536;53.150;18.172;2023-04-23T02:45:05;22.30;;;10.80;;
77449;SDS011;66536;53.150;18.172;2023-04-23T02:47:31;25.30;;;11.00;;
77449;SDS011;66536;53.150;18.172;2023-04-23T02:50:06;28.90;;;11.90;;
77449;SDS011;66536;53.150;18.172;2023-04-23T02:52:32;25.20;;;11.30;;
77449;SDS011;66536;53.150;18.172;2023-04-23T02:55:01;26.60;;;10.70;;
77449;SDS011;66536;53.150;18.172;2023-04-23T02:57:29;20.40;;;11.10;;
77449;SDS011;66536;53.150;18.172;2023-04-23T02:59:55;25.70;;;11.60;;
77449;SDS011;66536;53.150;18.172;2023-04-23T03:02:23;23.20;;;11.10;;
77449;SDS011;66536;53.150;18.172;2023-04-23T03:04:49;21.80;;;10.50;;
77449;SDS011;66536;53.150;18.172;2023-04-23T03:07:16;23.60;;;10.40;;
77449;SDS011;66536;53.150;18.172;2023-04-23T03:09:42;26.30;;;11.50;;
77449;SDS011;66536;53.150;18.172;2023-04-23T03:12:09;22.30;;;11.40;;
77449;SDS011;66536;53.150;18.172;2023-04-23T03:14:36;35.90;;;11.80;;
77449;SDS011;66536;53.150;18.172;2023-04-23T03:17:02;34.50;;;12.70;;
77449;SDS011;66536;53.150;18.172;2023-04-23T03:19:29;34.60;;;11.50;;
77449;SDS011;66536;53.150;18.172;2023-04-23T03:21:56;26.60;;;11.40;;
77449;SDS011;66536;53.150;18.172;2023-04-23T03:24:24;26.00;;;9.70;;
77449;SDS011;66536;53.150;18.172;2023-04-23T03:26:50;26.30;;;11.40;;
77449;SDS011;66536;53.150;18.172;2023-04-23T03:29:16;25.30;;;11.70;;
77449;SDS011;66536;53.150;18.172;2023-04-23T03:31:43;26.60;;;12.00;;
77449;SDS011;66536;53.150;18.172;2023-04-23T03:34:09;27.80;;;12.60;;
77449;SDS011;66536;53.150;18.172;2023-04-23T03:36:35;29.00;;;12.10;;
77449;SDS011;66536;53.150;18.172;2023-04-23T03:39:02;25.80;;;11.60;;
77449;SDS011;66536;53.150;18.172;2023-04-23T03:41:39;29.20;;;12.20;;
77449;SDS011;66536;53.150;18.172;2023-04-23T03:44:06;25.70;;;12.20;;
77449;SDS011;66536;53.150;18.172;2023-04-23T03:46:45;28.90;;;10.80;;
77449;SDS011;66536;53.150;18.172;2023-04-23T03:49:13;30.40;;;12.60;;
77449;SDS011;66536;53.150;18.172;2023-04-23T03:51:41;35.60;;;11.20;;
77449;SDS011;66536;53.150;18.172;2023-04-23T03:54:07;28.50;;;11.60;;
77449;SDS011;66536;53.150;18.172;2023-04-23T03:56:37;42.30;;;13.10;;
77449;SDS011;66536;53.150;18.172;2023-04-23T03:59:13;48.70;;;12.20;;
77449;SDS011;66536;53.150;18.172;2023-04-23T04:01:39;41.50;;;11.80;;
77449;SDS011;66536;53.150;18.172;2023-04-23T04:04:05;36.00;;;11.40;;
77449;SDS011;66536;53.150;18.172;2023-04-23T04:06:31;35.80;;;13.10;;
77449;SDS011;66536;53.150;18.172;2023-04-23T04:08:57;39.40;;;12.20;;
77449;SDS011;66536;53.150;18.172;2023-04-23T04:11:24;34.80;;;10.70;;
77449;SDS011;66536;53.150;18.172;2023-04-23T04:13:52;32.70;;;12.70;;
77449;SDS011;66536;53.150;18.172;2023-04-23T04:16:18;36.40;;;11.70;;
77449;SDS011;66536;53.150;18.172;2023-04-23T04:18:46;22.90;;;11.20;;
77449;SDS011;66536;53.150;18.172;2023-04-23T04:21:12;33.50;;;12.20;;
77449;SDS011;66536;53.150;18.172;2023-04-23T04:23:40;27.70;;;11.40;;
77449;SDS011;66536;53.150;18.172;2023-04-23T04:26:06;25.90;;;11.90;;
77449;SDS011;66536;53.150;18.172;2023-04-23T04:28:32;30.30;;;14.80;;
77449;SDS011;66536;53.150;18.172;2023-04-23T04:31:01;23.30;;;11.40;;
77449;SDS011;66536;53.150;18.172;2023-04-23T04:33:33;18.30;;;9.40;;
77449;SDS011;66536;53.150;18.172;2023-04-23T04:36:00;16.60;;;9.30;;
77449;SDS011;66536;53.150;18.172;2023-04-23T04:38:27;21.10;;;10.00;;
77449;SDS011;66536;53.150;18.172;2023-04-23T04:40:55;18.80;;;9.90;;
77449;SDS011;66536;53.150;18.172;2023-04-23T04:43:24;20.00;;;9.30;;
77449;SDS011;66536;53.150;18.172;2023-04-23T04:45:52;19.00;;;10.10;;
77449;SDS011;66536;53.150;18.172;2023-04-23T04:48:18;16.30;;;9.10;;
77449;SDS011;66536;53.150;18.172;2023-04-23T04:50:44;20.40;;;10.20;;
77449;SDS011;66536;53.150;18.172;2023-04-23T04:53:12;18.50;;;9.60;;
77449;SDS011;66536;53.150;18.172;2023-04-23T04:55:38;18.00;;;9.30;;
77449;SDS011;66536;53.150;18.172;2023-04-23T04:58:04;17.40;;;9.70;;
77449;SDS011;66536;53.150;18.172;2023-04-23T05:00:30;15.80;;;9.00;;
77449;SDS011;66536;53.150;18.172;2023-04-23T05:02:57;18.60;;;9.90;;
77449;SDS011;66536;53.150;18.172;2023-04-23T05:05:26;18.20;;;10.30;;
77449;SDS011;66536;53.150;18.172;2023-04-23T05:07:52;21.10;;;10.20;;
77449;SDS011;66536;53.150;18.172;2023-04-23T05:10:20;19.40;;;9.80;;
77449;SDS011;66536;53.150;18.172;2023-04-23T05:12:46;18.60;;;9.30;;
77449;SDS011;66536;53.150;18.172;2023-04-23T05:15:12;18.20;;;9.90;;
77449;SDS011;66536;53.150;18.172;2023-04-23T05:17:39;18.90;;;9.80;;
77449;SDS011;66536;53.150;18.172;2023-04-23T05:20:06;21.80;;;10.30;;
77449;SDS011;66536;53.150;18.172;2023-04-23T05:22:38;16.40;;;9.90;;
77449;SDS011;66536;53.150;18.172;2023-04-23T05:25:06;20.60;;;9.50;;
77449;SDS011;66536;53.150;18.172;2023-04-23T05:27:33;19.40;;;9.50;;
77449;SDS011;66536;53.150;18.172;2023-04-23T05:30:01;20.60;;;10.00;;
77449;SDS011;66536;53.150;18.172;2023-04-23T05:32:28;17.90;;;9.90;;
77449;SDS011;66536;53.150;18.172;2023-04-23T05:34:56;22.70;;;9.60;;
77449;SDS011;66536;53.150;18.172;2023-04-23T05:37:22;18.90;;;9.70;;
77449;SDS011;66536;53.150;18.172;2023-04-23T05:39:48;18.30;;;9.70;;
77449;SDS011;66536;53.150;18.172;2023-04-23T05:42:16;23.50;;;10.00;;
77449;SDS011;66536;53.150;18.172;2023-04-23T05:44:45;17.70;;;10.00;;
77449;SDS011;66536;53.150;18.172;2023-04-23T05:47:11;18.80;;;10.30;;
77449;SDS011;66536;53.150;18.172;2023-04-23T05:49:39;20.10;;;9.00;;
77449;SDS011;66536;53.150;18.172;2023-04-23T05:52:06;18.70;;;9.90;;
77449;SDS011;66536;53.150;18.172;2023-04-23T05:54:32;17.80;;;9.50;;
77449;SDS011;66536;53.150;18.172;2023-04-23T05:56:58;16.90;;;9.90;;
77449;SDS011;66536;53.150;18.172;2023-04-23T05:59:25;19.10;;;9.60;;
77449;SDS011;66536;53.150;18.172;2023-04-23T06:01:51;14.80;;;10.10;;
77449;SDS011;66536;53.150;18.172;2023-04-23T06:04:17;19.30;;;10.20;;
77449;SDS011;66536;53.150;18.172;2023-04-23T06:07:05;17.90;;;10.40;;
77449;SDS011;66536;53.150;18.172;2023-04-23T06:09:31;18.00;;;9.70;;
77449;SDS011;66536;53.150;18.172;2023-04-23T06:12:00;20.60;;;10.90;;
77449;SDS011;66536;53.150;18.172;2023-04-23T06:14:29;19.10;;;10.10;;
77449;SDS011;66536;53.150;18.172;2023-04-23T06:16:56;21.50;;;11.00;;
77449;SDS011;66536;53.150;18.172;2023-04-23T06:19:22;20.90;;;10.00;;
77449;SDS011;66536;53.150;18.172;2023-04-23T06:21:55;21.30;;;10.60;;
77449;SDS011;66536;53.150;18.172;2023-04-23T06:24:21;17.50;;;10.60;;
77449;SDS011;66536;53.150;18.172;2023-04-23T06:26:47;17.90;;;10.90;;
77449;SDS011;66536;53.150;18.172;2023-04-23T06:29:15;16.20;;;10.10;;
77449;SDS011;66536;53.150;18.172;2023-04-23T06:31:53;17.00;;;9.80;;
77449;SDS011;66536;53.150;18.172;2023-04-23T06:34:22;18.50;;;10.70;;
77449;SDS011;66536;53.150;18.172;2023-04-23T06:36:49;20.80;;;10.40;;
77449;SDS011;66536;53.150;18.172;2023-04-23T06:39:23;17.00;;;9.80;;
77449;SDS011;66536;53.150;18.172;2023-04-23T06:41:50;14.90;;;10.20;;
77449;SDS011;66536;53.150;18.172;2023-04-23T06:44:24;18.60;;;10.50;;
77449;SDS011;66536;53.150;18.172;2023-04-23T06:46:52;19.60;;;11.50;;
77449;SDS011;66536;53.150;18.172;2023-04-23T06:49:18;18.10;;;10.30;;
77449;SDS011;66536;53.150;18.172;2023-04-23T06:51:45;16.20;;;9.50;;
77449;SDS011;66536;53.150;18.172;2023-04-23T06:54:13;16.50;;;9.20;;
77449;SDS011;66536;53.150;18.172;2023-04-23T06:56:41;16.50;;;9.20;;
77449;SDS011;66536;53.150;18.172;2023-04-23T06:59:10;17.60;;;9.60;;
77449;SDS011;66536;53.150;18.172;2023-04-23T07:01:44;16.60;;;9.90;;
77449;SDS011;66536;53.150;18.172;2023-04-23T07:04:32;14.90;;;9.50;;
77449;SDS011;66536;53.150;18.172;2023-04-23T07:07:00;16.70;;;9.70;;
77449;SDS011;66536;53.150;18.172;2023-04-23T07:09:29;14.60;;;8.80;;
77449;SDS011;66536;53.150;18.172;2023-04-23T07:11:55;14.80;;;9.40;;
77449;SDS011;66536;53.150;18.172;2023-04-23T07:14:21;16.90;;;9.40;;
77449;SDS011;66536;53.150;18.172;2023-04-23T07:16:49;13.80;;;9.00;;
77449;SDS011;66536;53.150;18.172;2023-04-23T07:19:16;13.20;;;8.50;;
77449;SDS011;66536;53.150;18.172;2023-04-23T07:21:42;15.80;;;9.20;;
77449;SDS011;66536;53.150;18.172;2023-04-23T07:24:08;13.20;;;8.70;;
77449;SDS011;66536;53.150;18.172;2023-04-23T07:26:39;13.50;;;8.30;;
77449;SDS011;66536;53.150;18.172;2023-04-23T07:29:07;12.30;;;7.70;;
77449;SDS011;66536;53.150;18.172;2023-04-23T07:31:36;10.80;;;7.70;;
77449;SDS011;66536;53.150;18.172;2023-04-23T07:34:03;14.70;;;7.60;;
77449;SDS011;66536;53.150;18.172;2023-04-23T07:36:31;12.20;;;8.10;;
77449;SDS011;66536;53.150;18.172;2023-04-23T07:38:58;17.30;;;8.20;;
77449;SDS011;66536;53.150;18.172;2023-04-23T07:41:24;13.00;;;7.20;;
77449;SDS011;66536;53.150;18.172;2023-04-23T07:43:50;12.10;;;7.20;;
77449;SDS011;66536;53.150;18.172;2023-04-23T07:46:19;11.90;;;7.40;;
77449;SDS011;66536;53.150;18.172;2023-04-23T07:48:50;12.40;;;6.90;;
77449;SDS011;66536;53.150;18.172;2023-04-23T07:51:17;10.30;;;7.40;;
77449;SDS011;66536;53.150;18.172;2023-04-23T07:53:47;12.60;;;7.60;;
77449;SDS011;66536;53.150;18.172;2023-04-23T07:56:17;11.10;;;7.10;;
77449;SDS011;66536;53.150;18.172;2023-04-23T07:58:45;12.10;;;7.40;;
77449;SDS011;66536;53.150;18.172;2023-04-23T08:01:12;12.20;;;7.10;;
77449;SDS011;66536;53.150;18.172;2023-04-23T08:03:38;13.30;;;7.30;;
77449;SDS011;66536;53.150;18.172;2023-04-23T08:06:05;13.00;;;7.50;;
77449;SDS011;66536;53.150;18.172;2023-04-23T08:08:32;15.50;;;7.40;;
77449;SDS011;66536;53.150;18.172;2023-04-23T08:10:59;11.20;;;6.70;;
77449;SDS011;66536;53.150;18.172;2023-04-23T08:13:28;11.10;;;6.00;;
77449;SDS011;66536;53.150;18.172;2023-04-23T08:15:56;10.20;;;6.30;;
77449;SDS011;66536;53.150;18.172;2023-04-23T08:18:22;12.90;;;6.70;;
77449;SDS011;66536;53.150;18.172;2023-04-23T08:20:48;12.10;;;6.40;;
77449;SDS011;66536;53.150;18.172;2023-04-23T08:23:34;11.50;;;6.30;;
77449;SDS011;66536;53.150;18.172;2023-04-23T08:26:00;10.70;;;6.60;;
77449;SDS011;66536;53.150;18.172;2023-04-23T08:28:27;11.70;;;6.30;;
77449;SDS011;66536;53.150;18.172;2023-04-23T08:30:53;8.50;;;5.90;;
77449;SDS011;66536;53.150;18.172;2023-04-23T08:33:22;15.50;;;6.80;;
77449;SDS011;66536;53.150;18.172;2023-04-23T08:35:48;12.50;;;6.20;;
77449;SDS011;66536;53.150;18.172;2023-04-23T08:38:17;8.60;;;6.10;;
77449;SDS011;66536;53.150;18.172;2023-04-23T08:40:45;11.10;;;7.00;;
77449;SDS011;66536;53.150;18.172;2023-04-23T08:43:18;7.50;;;5.50;;
77449;SDS011;66536;53.150;18.172;2023-04-23T08:46:01;15.40;;;5.70;;
77449;SDS011;66536;53.150;18.172;2023-04-23T08:48:29;10.90;;;5.50;;
77449;SDS011;66536;53.150;18.172;2023-04-23T08:50:56;13.30;;;5.20;;
77449;SDS011;66536;53.150;18.172;2023-04-23T08:53:24;8.60;;;5.10;;
77449;SDS011;66536;53.150;18.172;2023-04-23T08:55:59;8.10;;;5.20;;
77449;SDS011;66536;53.150;18.172;2023-04-23T08:58:51;6.80;;;4.70;;
77449;SDS011;66536;53.150;18.172;2023-04-23T09:01:18;9.40;;;4.50;;
77449;SDS011;66536;53.150;18.172;2023-04-23T09:03:45;9.50;;;4.80;;
77449;SDS011;66536;53.150;18.172;2023-04-23T09:06:14;8.10;;;4.40;;
77449;SDS011;66536;53.150;18.172;2023-04-23T09:08:46;12.00;;;4.00;;
77449;SDS011;66536;53.150;18.172;2023-04-23T09:11:15;7.70;;;5.40;;
77449;SDS011;66536;53.150;18.172;2023-04-23T09:13:42;8.30;;;4.90;;
77449;SDS011;66536;53.150;18.172;2023-04-23T09:16:08;8.80;;;4.70;;
77449;SDS011;66536;53.150;18.172;2023-04-23T09:18:35;8.30;;;4.30;;
77449;SDS011;66536;53.150;18.172;2023-04-23T09:21:12;10.90;;;4.70;;
77449;SDS011;66536;53.150;18.172;2023-04-23T09:23:43;12.40;;;7.60;;
77449;SDS011;66536;53.150;18.172;2023-04-23T09:26:50;11.20;;;4.20;;
77449;SDS011;66536;53.150;18.172;2023-04-23T09:29:21;11.10;;;4.90;;
77449;SDS011;66536;53.150;18.172;2023-04-23T09:31:52;14.00;;;4.40;;
77449;SDS011;66536;53.150;18.172;2023-04-23T09:34:21;16.30;;;4.30;;
77449;SDS011;66536;53.150;18.172;2023-04-23T09:36:50;8.50;;;5.00;;
77449;SDS011;66536;53.150;18.172;2023-04-23T09:39:21;12.20;;;4.40;;
77449;SDS011;66536;53.150;18.172;2023-04-23T09:41:51;7.20;;;4.10;;
77449;SDS011;66536;53.150;18.172;2023-04-23T09:44:19;18.20;;;6.00;;
77449;SDS011;66536;53.150;18.172;2023-04-23T09:47:05;8.20;;;3.50;;
77449;SDS011;66536;53.150;18.172;2023-04-23T09:49:44;8.90;;;4.40;;
77449;SDS011;66536;53.150;18.172;2023-04-23T09:52:15;8.30;;;3.80;;
77449;SDS011;66536;53.150;18.172;2023-04-23T09:54:43;16.50;;;4.50;;
77449;SDS011;66536;53.150;18.172;2023-04-23T09:57:12;17.30;;;3.70;;
77449;SDS011;66536;53.150;18.172;2023-04-23T09:59:38;5.40;;;3.60;;
77449;SDS011;66536;53.150;18.172;2023-04-23T10:02:05;10.90;;;3.60;;
77449;SDS011;66536;53.150;18.172;2023-04-23T10:04:33;10.10;;;4.30;;
77449;SDS011;66536;53.150;18.172;2023-04-23T10:07:00;8.30;;;4.00;;
77449;SDS011;66536;53.150;18.172;2023-04-23T10:09:49;11.10;;;4.20;;
77449;SDS011;66536;53.150;18.172;2023-04-23T10:12:16;7.20;;;3.40;;
77449;SDS011;66536;53.150;18.172;2023-04-23T10:14:47;10.40;;;3.70;;
77449;SDS011;66536;53.150;18.172;2023-04-23T10:17:18;8.50;;;3.90;;
77449;SDS011;66536;53.150;18.172;2023-04-23T10:19:47;8.10;;;3.50;;
77449;SDS011;66536;53.150;18.172;2023-04-23T10:22:15;10.20;;;4.50;;
77449;SDS011;66536;53.150;18.172;2023-04-23T10:24:46;15.10;;;3.50;;
77449;SDS011;66536;53.150;18.172;2023-04-23T10:27:25;11.80;;;3.60;;
77449;SDS011;66536;53.150;18.172;2023-04-23T10:29:53;10.50;;;3.70;;
77449;SDS011;66536;53.150;18.172;2023-04-23T10:32:21;9.10;;;3.90;;
77449;SDS011;66536;53.150;18.172;2023-04-23T10:34:48;7.60;;;4.10;;
77449;SDS011;66536;53.150;18.172;2023-04-23T10:37:19;6.10;;;3.60;;
77449;SDS011;66536;53.150;18.172;2023-04-23T10:39:46;4.50;;;3.20;;
77449;SDS011;66536;53.150;18.172;2023-04-23T10:42:15;7.90;;;3.60;;
77449;SDS011;66536;53.150;18.172;2023-04-23T10:44:43;11.90;;;4.30;;
77449;SDS011;66536;53.150;18.172;2023-04-23T10:47:13;6.40;;;4.30;;
77449;SDS011;66536;53.150;18.172;2023-04-23T10:49:45;7.60;;;3.70;;
77449;SDS011;66536;53.150;18.172;2023-04-23T11:01:11;8.80;;;3.70;;
77449;SDS011;66536;53.150;18.172;2023-04-23T11:13:52;8.80;;;3.20;;
77449;SDS011;66536;53.150;18.172;2023-04-23T11:25:25;16.80;;;4.40;;
77449;SDS011;66536;53.150;18.172;2023-04-23T11:55:01;6.50;;;3.40;;
77449;SDS011;66536;53.150;18.172;2023-04-23T12:08:08;5.70;;;3.40;;
77449;SDS011;66536;53.150;18.172;2023-04-23T15:37:33;5.60;;;3.00;;
77449;SDS011;66536;53.150;18.172;2023-04-23T15:41:28;6.60;;;3.10;;
77449;SDS011;66536;53.150;18.172;2023-04-23T15:47:44;7.50;;;3.40;;
77449;SDS011;66536;53.150;18.172;2023-04-23T15:50:24;4.10;;;3.30;;
77449;SDS011;66536;53.150;18.172;2023-04-23T16:05:07;5.70;;;3.80;;
77449;SDS011;66536;53.150;18.172;2023-04-23T16:08:08;7.10;;;3.30;;
77449;SDS011;66536;53.150;18.172;2023-04-23T16:10:54;6.80;;;3.10;;
77449;SDS011;66536;53.150;18.172;2023-04-23T16:14:03;5.60;;;3.80;;
77449;SDS011;66536;53.150;18.172;2023-04-23T16:17:11;9.30;;;4.50;;
77449;SDS011;66536;53.150;18.172;2023-04-23T16:28:06;8.00;;;4.20;;
77449;SDS011;66536;53.150;18.172;2023-04-23T16:31:35;8.20;;;3.60;;
77449;SDS011;66536;53.150;18.172;2023-04-23T16:34:28;5.50;;;4.10;;
77449;SDS011;66536;53.150;18.172;2023-04-23T16:59:43;8.20;;;2.90;;
77449;SDS011;66536;53.150;18.172;2023-04-23T17:03:42;3.90;;;2.40;;
